sensor_id;sensor_type;location;lat;lon;timestamp;P1;durP1;ratioP1;P2;durP2;ratioP2
76157;SDS011;64907;51.574;6.502;2024-02-23T00:00:58;1.40;;;1.40;;
76157;SDS011;64907;51.574;6.502;2024-02-23T00:03:23;1.40;;;1.40;;
76157;SDS011;64907;51.574;6.502;2024-02-23T00:05:49;1.10;;;1.10;;
76157;SDS011;64907;51.574;6.502;2024-02-23T00:08:23;1.25;;;1.20;;
76157;SDS011;64907;51.574;6.502;2024-02-23T00:13:17;0.73;;;0.73;;
76157;SDS011;64907;51.574;6.502;2024-02-23T00:15:44;0.70;;;0.70;;
76157;SDS011;64907;51.574;6.502;2024-02-23T00:18:09;1.38;;;1.10;;
76157;SDS011;64907;51.574;6.502;2024-02-23T00:20:34;0.98;;;0.98;;
76157;SDS011;64907;51.574;6.502;2024-02-23T00:23:01;1.52;;;1.50;;
76157;SDS011;64907;51.574;6.502;2024-02-23T00:25:26;1.50;;;1.50;;
76157;SDS011;64907;51.574;6.502;2024-02-23T00:27:55;2.42;;;1.10;;
76157;SDS011;64907;51.574;6.502;2024-02-23T00:30:20;1.50;;;1.20;;
76157;SDS011;64907;51.574;6.502;2024-02-23T00:32:46;1.55;;;1.45;;
76157;SDS011;64907;51.574;6.502;2024-02-23T00:35:11;1.23;;;1.13;;
76157;SDS011;64907;51.574;6.502;2024-02-23T00:37:36;1.38;;;1.38;;
76157;SDS011;64907;51.574;6.502;2024-02-23T00:40:04;1.52;;;1.27;;
76157;SDS011;64907;51.574;6.502;2024-02-23T00:42:30;1.80;;;1.70;;
76157;SDS011;64907;51.574;6.502;2024-02-23T00:44:55;1.83;;;1.73;;
76157;SDS011;64907;51.574;6.502;2024-02-23T00:47:21;2.65;;;2.50;;
76157;SDS011;64907;51.574;6.502;2024-02-23T00:49:46;3.60;;;3.05;;
76157;SDS011;64907;51.574;6.502;2024-02-23T00:52:11;4.97;;;3.40;;
76157;SDS011;64907;51.574;6.502;2024-02-23T00:54:36;3.58;;;3.38;;
76157;SDS011;64907;51.574;6.502;2024-02-23T00:57:14;4.05;;;3.78;;
76157;SDS011;64907;51.574;6.502;2024-02-23T00:59:40;4.70;;;4.22;;
76157;SDS011;64907;51.574;6.502;2024-02-23T01:02:06;6.28;;;3.80;;
76157;SDS011;64907;51.574;6.502;2024-02-23T01:04:31;4.32;;;3.97;;
76157;SDS011;64907;51.574;6.502;2024-02-23T01:09:39;3.70;;;3.40;;
76157;SDS011;64907;51.574;6.502;2024-02-23T01:12:07;4.45;;;3.45;;
76157;SDS011;64907;51.574;6.502;2024-02-23T01:14:32;3.38;;;2.95;;
76157;SDS011;64907;51.574;6.502;2024-02-23T01:16:57;2.63;;;2.38;;
76157;SDS011;64907;51.574;6.502;2024-02-23T01:19:22;6.35;;;2.80;;
76157;SDS011;64907;51.574;6.502;2024-02-23T01:21:48;2.42;;;2.22;;
76157;SDS011;64907;51.574;6.502;2024-02-23T01:24:17;4.28;;;3.15;;
76157;SDS011;64907;51.574;6.502;2024-02-23T01:26:42;3.03;;;2.17;;
76157;SDS011;64907;51.574;6.502;2024-02-23T01:29:09;2.60;;;2.50;;
76157;SDS011;64907;51.574;6.502;2024-02-23T01:31:35;3.50;;;2.03;;
76157;SDS011;64907;51.574;6.502;2024-02-23T01:34:03;2.50;;;1.95;;
76157;SDS011;64907;51.574;6.502;2024-02-23T01:36:28;3.03;;;1.98;;
76157;SDS011;64907;51.574;6.502;2024-02-23T01:38:54;1.73;;;1.67;;
76157;SDS011;64907;51.574;6.502;2024-02-23T01:41:22;2.33;;;1.85;;
76157;SDS011;64907;51.574;6.502;2024-02-23T01:43:48;2.88;;;1.35;;
76157;SDS011;64907;51.574;6.502;2024-02-23T01:46:14;3.20;;;1.70;;
76157;SDS011;64907;51.574;6.502;2024-02-23T01:48:43;1.60;;;1.50;;
76157;SDS011;64907;51.574;6.502;2024-02-23T01:51:10;1.73;;;1.55;;
76157;SDS011;64907;51.574;6.502;2024-02-23T01:53:36;2.53;;;1.40;;
76157;SDS011;64907;51.574;6.502;2024-02-23T01:56:01;3.47;;;1.27;;
76157;SDS011;64907;51.574;6.502;2024-02-23T01:58:42;1.42;;;1.33;;
76157;SDS011;64907;51.574;6.502;2024-02-23T02:01:07;6.63;;;1.77;;
76157;SDS011;64907;51.574;6.502;2024-02-23T02:03:37;4.32;;;1.50;;
76157;SDS011;64907;51.574;6.502;2024-02-23T02:06:15;1.85;;;1.23;;
76157;SDS011;64907;51.574;6.502;2024-02-23T02:08:41;4.05;;;1.30;;
76157;SDS011;64907;51.574;6.502;2024-02-23T02:13:36;2.78;;;1.33;;
76157;SDS011;64907;51.574;6.502;2024-02-23T02:16:02;1.83;;;1.30;;
76157;SDS011;64907;51.574;6.502;2024-02-23T02:18:27;4.72;;;1.90;;
76157;SDS011;64907;51.574;6.502;2024-02-23T02:20:56;3.38;;;1.10;;
76157;SDS011;64907;51.574;6.502;2024-02-23T02:23:22;5.45;;;1.33;;
76157;SDS011;64907;51.574;6.502;2024-02-23T02:25:54;4.75;;;1.38;;
76157;SDS011;64907;51.574;6.502;2024-02-23T02:30:51;1.73;;;1.17;;
76157;SDS011;64907;51.574;6.502;2024-02-23T02:33:16;8.07;;;1.48;;
76157;SDS011;64907;51.574;6.502;2024-02-23T02:35:41;3.20;;;1.30;;
76157;SDS011;64907;51.574;6.502;2024-02-23T02:38:10;6.15;;;1.40;;
76157;SDS011;64907;51.574;6.502;2024-02-23T02:40:35;3.08;;;1.40;;
76157;SDS011;64907;51.574;6.502;2024-02-23T02:43:01;1.90;;;1.10;;
76157;SDS011;64907;51.574;6.502;2024-02-23T02:45:26;3.00;;;1.60;;
76157;SDS011;64907;51.574;6.502;2024-02-23T02:47:51;3.88;;;1.90;;
76157;SDS011;64907;51.574;6.502;2024-02-23T02:50:16;3.03;;;1.65;;
76157;SDS011;64907;51.574;6.502;2024-02-23T02:52:42;3.10;;;1.20;;
76157;SDS011;64907;51.574;6.502;2024-02-23T02:55:07;1.83;;;1.13;;
76157;SDS011;64907;51.574;6.502;2024-02-23T02:57:33;2.20;;;1.30;;
76157;SDS011;64907;51.574;6.502;2024-02-23T02:59:58;5.05;;;1.25;;
76157;SDS011;64907;51.574;6.502;2024-02-23T03:02:25;2.80;;;1.30;;
76157;SDS011;64907;51.574;6.502;2024-02-23T03:04:50;1.20;;;1.05;;
76157;SDS011;64907;51.574;6.502;2024-02-23T03:07:16;2.67;;;1.00;;
76157;SDS011;64907;51.574;6.502;2024-02-23T03:09:41;1.30;;;0.93;;
76157;SDS011;64907;51.574;6.502;2024-02-23T03:12:07;3.10;;;0.95;;
76157;SDS011;64907;51.574;6.502;2024-02-23T03:14:32;6.82;;;1.73;;
76157;SDS011;64907;51.574;6.502;2024-02-23T03:16:58;4.82;;;1.10;;
76157;SDS011;64907;51.574;6.502;2024-02-23T03:19:24;6.35;;;1.40;;
76157;SDS011;64907;51.574;6.502;2024-02-23T03:24:27;6.25;;;1.20;;
76157;SDS011;64907;51.574;6.502;2024-02-23T03:26:52;6.72;;;1.50;;
76157;SDS011;64907;51.574;6.502;2024-02-23T03:29:24;4.20;;;0.95;;
76157;SDS011;64907;51.574;6.502;2024-02-23T03:31:52;2.80;;;1.73;;
76157;SDS011;64907;51.574;6.502;2024-02-23T03:34:17;5.07;;;1.25;;
76157;SDS011;64907;51.574;6.502;2024-02-23T03:36:43;1.35;;;0.88;;
76157;SDS011;64907;51.574;6.502;2024-02-23T03:39:08;6.55;;;1.60;;
76157;SDS011;64907;51.574;6.502;2024-02-23T03:41:33;3.03;;;1.77;;
76157;SDS011;64907;51.574;6.502;2024-02-23T03:43:58;3.13;;;1.30;;
76157;SDS011;64907;51.574;6.502;2024-02-23T03:46:24;4.75;;;1.30;;
76157;SDS011;64907;51.574;6.502;2024-02-23T03:48:49;3.42;;;1.13;;
76157;SDS011;64907;51.574;6.502;2024-02-23T03:51:15;1.65;;;1.10;;
76157;SDS011;64907;51.574;6.502;2024-02-23T03:53:41;3.60;;;1.48;;
76157;SDS011;64907;51.574;6.502;2024-02-23T03:56:06;2.50;;;1.38;;
76157;SDS011;64907;51.574;6.502;2024-02-23T03:58:31;2.88;;;1.10;;
76157;SDS011;64907;51.574;6.502;2024-02-23T04:00:57;6.22;;;1.13;;
76157;SDS011;64907;51.574;6.502;2024-02-23T04:03:22;4.47;;;1.20;;
76157;SDS011;64907;51.574;6.502;2024-02-23T04:05:49;3.50;;;1.35;;
76157;SDS011;64907;51.574;6.502;2024-02-23T04:08:14;3.38;;;1.23;;
76157;SDS011;64907;51.574;6.502;2024-02-23T04:10:39;3.95;;;1.25;;
76157;SDS011;64907;51.574;6.502;2024-02-23T04:13:05;6.00;;;1.55;;
76157;SDS011;64907;51.574;6.502;2024-02-23T04:15:30;4.72;;;2.05;;
76157;SDS011;64907;51.574;6.502;2024-02-23T04:17:55;3.88;;;1.00;;
76157;SDS011;64907;51.574;6.502;2024-02-23T04:20:36;1.67;;;1.25;;
76157;SDS011;64907;51.574;6.502;2024-02-23T04:23:03;2.97;;;1.00;;
76157;SDS011;64907;51.574;6.502;2024-02-23T04:25:29;4.70;;;1.02;;
76157;SDS011;64907;51.574;6.502;2024-02-23T04:30:24;3.35;;;1.27;;
76157;SDS011;64907;51.574;6.502;2024-02-23T04:32:49;3.13;;;1.10;;
76157;SDS011;64907;51.574;6.502;2024-02-23T04:35:15;2.38;;;1.02;;
76157;SDS011;64907;51.574;6.502;2024-02-23T04:37:44;4.80;;;1.23;;
76157;SDS011;64907;51.574;6.502;2024-02-23T04:40:10;3.22;;;1.25;;
76157;SDS011;64907;51.574;6.502;2024-02-23T04:42:36;5.38;;;1.40;;
76157;SDS011;64907;51.574;6.502;2024-02-23T04:45:01;1.85;;;1.17;;
76157;SDS011;64907;51.574;6.502;2024-02-23T04:47:30;5.88;;;1.38;;
76157;SDS011;64907;51.574;6.502;2024-02-23T04:49:55;2.35;;;1.30;;
76157;SDS011;64907;51.574;6.502;2024-02-23T04:52:21;4.80;;;1.52;;
76157;SDS011;64907;51.574;6.502;2024-02-23T04:54:47;4.38;;;1.30;;
76157;SDS011;64907;51.574;6.502;2024-02-23T04:57:14;5.65;;;1.67;;
76157;SDS011;64907;51.574;6.502;2024-02-23T04:59:40;2.65;;;1.00;;
76157;SDS011;64907;51.574;6.502;2024-02-23T05:02:05;4.82;;;1.20;;
76157;SDS011;64907;51.574;6.502;2024-02-23T05:04:30;3.63;;;1.20;;
76157;SDS011;64907;51.574;6.502;2024-02-23T05:06:55;4.60;;;1.30;;
76157;SDS011;64907;51.574;6.502;2024-02-23T05:09:21;6.75;;;1.30;;
76157;SDS011;64907;51.574;6.502;2024-02-23T05:11:46;3.88;;;1.20;;
76157;SDS011;64907;51.574;6.502;2024-02-23T05:14:12;4.38;;;1.25;;
76157;SDS011;64907;51.574;6.502;2024-02-23T05:16:37;8.65;;;1.60;;
76157;SDS011;64907;51.574;6.502;2024-02-23T05:21:33;5.65;;;2.20;;
76157;SDS011;64907;51.574;6.502;2024-02-23T05:24:08;4.32;;;1.20;;
76157;SDS011;64907;51.574;6.502;2024-02-23T05:26:33;4.30;;;1.10;;
76157;SDS011;64907;51.574;6.502;2024-02-23T05:28:58;5.13;;;1.40;;
76157;SDS011;64907;51.574;6.502;2024-02-23T05:34:08;5.15;;;1.27;;
76157;SDS011;64907;51.574;6.502;2024-02-23T05:36:42;4.60;;;1.42;;
76157;SDS011;64907;51.574;6.502;2024-02-23T05:39:07;4.43;;;1.25;;
76157;SDS011;64907;51.574;6.502;2024-02-23T05:44:04;2.50;;;1.30;;
76157;SDS011;64907;51.574;6.502;2024-02-23T05:46:31;3.63;;;1.20;;
76157;SDS011;64907;51.574;6.502;2024-02-23T05:48:56;4.00;;;1.38;;
76157;SDS011;64907;51.574;6.502;2024-02-23T05:51:37;4.63;;;1.30;;
76157;SDS011;64907;51.574;6.502;2024-02-23T05:54:03;2.25;;;1.52;;
76157;SDS011;64907;51.574;6.502;2024-02-23T05:56:28;5.10;;;1.52;;
76157;SDS011;64907;51.574;6.502;2024-02-23T05:58:53;6.70;;;1.40;;
76157;SDS011;64907;51.574;6.502;2024-02-23T06:01:19;5.80;;;1.58;;
76157;SDS011;64907;51.574;6.502;2024-02-23T06:03:45;7.53;;;1.63;;
76157;SDS011;64907;51.574;6.502;2024-02-23T06:06:11;7.35;;;1.10;;
76157;SDS011;64907;51.574;6.502;2024-02-23T06:08:36;8.30;;;1.50;;
76157;SDS011;64907;51.574;6.502;2024-02-23T06:11:03;4.60;;;1.73;;
76157;SDS011;64907;51.574;6.502;2024-02-23T06:13:29;6.38;;;1.70;;
76157;SDS011;64907;51.574;6.502;2024-02-23T06:15:54;4.57;;;1.52;;
76157;SDS011;64907;51.574;6.502;2024-02-23T06:21:21;3.25;;;1.13;;
76157;SDS011;64907;51.574;6.502;2024-02-23T06:23:46;4.78;;;1.00;;
76157;SDS011;64907;51.574;6.502;2024-02-23T06:26:12;6.32;;;1.92;;
76157;SDS011;64907;51.574;6.502;2024-02-23T06:28:37;2.45;;;1.52;;
76157;SDS011;64907;51.574;6.502;2024-02-23T06:31:06;4.47;;;1.65;;
76157;SDS011;64907;51.574;6.502;2024-02-23T06:33:32;8.02;;;1.77;;
76157;SDS011;64907;51.574;6.502;2024-02-23T06:35:57;3.45;;;1.17;;
76157;SDS011;64907;51.574;6.502;2024-02-23T06:38:23;3.13;;;1.13;;
76157;SDS011;64907;51.574;6.502;2024-02-23T06:40:48;5.75;;;1.27;;
76157;SDS011;64907;51.574;6.502;2024-02-23T06:43:13;8.00;;;1.40;;
76157;SDS011;64907;51.574;6.502;2024-02-23T06:45:41;2.40;;;1.30;;
76157;SDS011;64907;51.574;6.502;2024-02-23T06:50:54;5.45;;;1.70;;
76157;SDS011;64907;51.574;6.502;2024-02-23T06:53:20;4.75;;;1.50;;
76157;SDS011;64907;51.574;6.502;2024-02-23T06:55:45;3.47;;;1.30;;
76157;SDS011;64907;51.574;6.502;2024-02-23T06:58:10;5.88;;;1.10;;
76157;SDS011;64907;51.574;6.502;2024-02-23T07:03:07;7.28;;;1.63;;
76157;SDS011;64907;51.574;6.502;2024-02-23T07:05:33;10.23;;;1.48;;
76157;SDS011;64907;51.574;6.502;2024-02-23T07:08:02;8.85;;;1.52;;
76157;SDS011;64907;51.574;6.502;2024-02-23T07:12:58;8.60;;;1.20;;
76157;SDS011;64907;51.574;6.502;2024-02-23T07:15:23;7.05;;;1.70;;
76157;SDS011;64907;51.574;6.502;2024-02-23T07:17:56;5.32;;;1.50;;
76157;SDS011;64907;51.574;6.502;2024-02-23T07:20:22;4.72;;;1.42;;
76157;SDS011;64907;51.574;6.502;2024-02-23T07:22:47;5.43;;;1.30;;
76157;SDS011;64907;51.574;6.502;2024-02-23T07:25:17;7.15;;;1.20;;
76157;SDS011;64907;51.574;6.502;2024-02-23T07:27:42;4.28;;;1.20;;
76157;SDS011;64907;51.574;6.502;2024-02-23T07:30:07;7.30;;;1.25;;
76157;SDS011;64907;51.574;6.502;2024-02-23T07:32:33;5.20;;;1.80;;
76157;SDS011;64907;51.574;6.502;2024-02-23T07:34:58;4.45;;;1.50;;
76157;SDS011;64907;51.574;6.502;2024-02-23T07:37:25;4.05;;;1.30;;
76157;SDS011;64907;51.574;6.502;2024-02-23T07:39:50;4.00;;;1.20;;
76157;SDS011;64907;51.574;6.502;2024-02-23T07:45:01;4.90;;;1.23;;
76157;SDS011;64907;51.574;6.502;2024-02-23T07:47:27;4.65;;;1.10;;
76157;SDS011;64907;51.574;6.502;2024-02-23T07:52:29;4.55;;;1.10;;
76157;SDS011;64907;51.574;6.502;2024-02-23T08:03:02;3.72;;;1.40;;
76157;SDS011;64907;51.574;6.502;2024-02-23T08:05:28;4.90;;;1.45;;
76157;SDS011;64907;51.574;6.502;2024-02-23T08:07:53;6.85;;;1.90;;
76157;SDS011;64907;51.574;6.502;2024-02-23T08:13:10;3.45;;;1.20;;
76157;SDS011;64907;51.574;6.502;2024-02-23T08:15:36;2.65;;;1.50;;
76157;SDS011;64907;51.574;6.502;2024-02-23T08:18:01;3.85;;;1.30;;
76157;SDS011;64907;51.574;6.502;2024-02-23T08:22:58;2.67;;;1.33;;
76157;SDS011;64907;51.574;6.502;2024-02-23T08:30:30;7.03;;;1.38;;
76157;SDS011;64907;51.574;6.502;2024-02-23T08:33:03;5.47;;;1.40;;
76157;SDS011;64907;51.574;6.502;2024-02-23T08:35:30;2.95;;;1.20;;
76157;SDS011;64907;51.574;6.502;2024-02-23T08:40:39;4.90;;;1.50;;
76157;SDS011;64907;51.574;6.502;2024-02-23T08:45:34;2.40;;;1.15;;
76157;SDS011;64907;51.574;6.502;2024-02-23T08:48:01;10.63;;;1.65;;
76157;SDS011;64907;51.574;6.502;2024-02-23T08:50:28;6.03;;;1.38;;
76157;SDS011;64907;51.574;6.502;2024-02-23T08:52:53;7.70;;;1.67;;
76157;SDS011;64907;51.574;6.502;2024-02-23T08:55:19;4.40;;;1.70;;
76157;SDS011;64907;51.574;6.502;2024-02-23T08:57:44;2.83;;;1.38;;
76157;SDS011;64907;51.574;6.502;2024-02-23T09:00:09;5.20;;;2.20;;
76157;SDS011;64907;51.574;6.502;2024-02-23T09:02:41;4.65;;;1.20;;
76157;SDS011;64907;51.574;6.502;2024-02-23T09:05:15;3.63;;;1.55;;
76157;SDS011;64907;51.574;6.502;2024-02-23T09:07:48;5.03;;;1.58;;
76157;SDS011;64907;51.574;6.502;2024-02-23T09:12:59;4.35;;;1.10;;
76157;SDS011;64907;51.574;6.502;2024-02-23T09:15:24;3.50;;;1.00;;
76157;SDS011;64907;51.574;6.502;2024-02-23T09:18:03;7.40;;;1.48;;
76157;SDS011;64907;51.574;6.502;2024-02-23T09:20:36;3.15;;;1.10;;
76157;SDS011;64907;51.574;6.502;2024-02-23T09:23:01;6.88;;;1.40;;
76157;SDS011;64907;51.574;6.502;2024-02-23T09:25:26;2.05;;;1.33;;
76157;SDS011;64907;51.574;6.502;2024-02-23T09:27:52;0.98;;;0.82;;
76157;SDS011;64907;51.574;6.502;2024-02-23T09:30:23;3.97;;;1.42;;
76157;SDS011;64907;51.574;6.502;2024-02-23T09:32:48;3.70;;;1.20;;
76157;SDS011;64907;51.574;6.502;2024-02-23T09:35:13;1.92;;;0.88;;
76157;SDS011;64907;51.574;6.502;2024-02-23T09:40:34;2.70;;;1.33;;
76157;SDS011;64907;51.574;6.502;2024-02-23T09:45:45;3.90;;;1.23;;
76157;SDS011;64907;51.574;6.502;2024-02-23T09:50:42;2.40;;;1.30;;
76157;SDS011;64907;51.574;6.502;2024-02-23T09:53:13;4.15;;;1.00;;
76157;SDS011;64907;51.574;6.502;2024-02-23T09:55:45;4.18;;;1.15;;
76157;SDS011;64907;51.574;6.502;2024-02-23T09:58:14;2.60;;;1.10;;
76157;SDS011;64907;51.574;6.502;2024-02-23T10:00:44;2.47;;;1.13;;
76157;SDS011;64907;51.574;6.502;2024-02-23T10:03:09;3.85;;;1.38;;
76157;SDS011;64907;51.574;6.502;2024-02-23T10:05:36;2.63;;;1.27;;
76157;SDS011;64907;51.574;6.502;2024-02-23T10:08:02;1.75;;;1.00;;
76157;SDS011;64907;51.574;6.502;2024-02-23T10:12:59;2.85;;;1.30;;
76157;SDS011;64907;51.574;6.502;2024-02-23T10:17:53;2.30;;;0.93;;
76157;SDS011;64907;51.574;6.502;2024-02-23T10:22:50;4.35;;;1.20;;
76157;SDS011;64907;51.574;6.502;2024-02-23T10:25:18;5.68;;;1.25;;
76157;SDS011;64907;51.574;6.502;2024-02-23T10:27:47;5.53;;;1.30;;
76157;SDS011;64907;51.574;6.502;2024-02-23T10:30:13;2.10;;;1.48;;
76157;SDS011;64907;51.574;6.502;2024-02-23T10:32:48;2.40;;;1.05;;
76157;SDS011;64907;51.574;6.502;2024-02-23T10:35:16;2.03;;;1.23;;
76157;SDS011;64907;51.574;6.502;2024-02-23T10:37:43;4.72;;;1.30;;
76157;SDS011;64907;51.574;6.502;2024-02-23T10:40:12;3.00;;;1.15;;
76157;SDS011;64907;51.574;6.502;2024-02-23T10:42:40;2.22;;;1.70;;
76157;SDS011;64907;51.574;6.502;2024-02-23T10:48:04;5.15;;;1.20;;
76157;SDS011;64907;51.574;6.502;2024-02-23T10:53:07;1.60;;;1.00;;
76157;SDS011;64907;51.574;6.502;2024-02-23T10:55:41;7.78;;;1.33;;
76157;SDS011;64907;51.574;6.502;2024-02-23T10:58:10;3.28;;;1.45;;
76157;SDS011;64907;51.574;6.502;2024-02-23T11:06:12;4.68;;;1.33;;
76157;SDS011;64907;51.574;6.502;2024-02-23T11:08:40;6.60;;;1.73;;
76157;SDS011;64907;51.574;6.502;2024-02-23T11:13:49;7.28;;;1.58;;
76157;SDS011;64907;51.574;6.502;2024-02-23T11:19:03;6.10;;;1.17;;
76157;SDS011;64907;51.574;6.502;2024-02-23T11:21:38;8.02;;;1.70;;
76157;SDS011;64907;51.574;6.502;2024-02-23T11:24:04;4.53;;;1.20;;
76157;SDS011;64907;51.574;6.502;2024-02-23T11:29:13;2.60;;;1.30;;
76157;SDS011;64907;51.574;6.502;2024-02-23T11:34:40;3.42;;;1.10;;
76157;SDS011;64907;51.574;6.502;2024-02-23T11:40:03;3.28;;;1.17;;
76157;SDS011;64907;51.574;6.502;2024-02-23T11:42:37;5.32;;;1.20;;
76157;SDS011;64907;51.574;6.502;2024-02-23T11:45:04;2.30;;;1.20;;
76157;SDS011;64907;51.574;6.502;2024-02-23T11:50:01;2.47;;;1.40;;
76157;SDS011;64907;51.574;6.502;2024-02-23T11:57:38;6.50;;;1.40;;
76157;SDS011;64907;51.574;6.502;2024-02-23T12:00:09;6.30;;;1.50;;
76157;SDS011;64907;51.574;6.502;2024-02-23T12:02:36;3.05;;;1.38;;
76157;SDS011;64907;51.574;6.502;2024-02-23T12:05:02;1.52;;;0.93;;
76157;SDS011;64907;51.574;6.502;2024-02-23T12:07:30;6.82;;;1.52;;
76157;SDS011;64907;51.574;6.502;2024-02-23T12:12:26;5.82;;;1.85;;
76157;SDS011;64907;51.574;6.502;2024-02-23T12:14:52;4.20;;;1.10;;
76157;SDS011;64907;51.574;6.502;2024-02-23T12:17:31;3.95;;;1.05;;
76157;SDS011;64907;51.574;6.502;2024-02-23T12:22:28;9.18;;;1.92;;
76157;SDS011;64907;51.574;6.502;2024-02-23T12:24:57;4.45;;;1.52;;
76157;SDS011;64907;51.574;6.502;2024-02-23T12:27:26;2.58;;;1.00;;
76157;SDS011;64907;51.574;6.502;2024-02-23T12:29:53;5.00;;;1.60;;
76157;SDS011;64907;51.574;6.502;2024-02-23T12:32:31;5.25;;;1.50;;
76157;SDS011;64907;51.574;6.502;2024-02-23T12:35:04;3.90;;;1.33;;
76157;SDS011;64907;51.574;6.502;2024-02-23T12:40:02;2.08;;;1.08;;
76157;SDS011;64907;51.574;6.502;2024-02-23T12:42:32;5.25;;;1.30;;
76157;SDS011;64907;51.574;6.502;2024-02-23T12:47:56;3.58;;;1.23;;
76157;SDS011;64907;51.574;6.502;2024-02-23T12:50:31;5.22;;;1.27;;
76157;SDS011;64907;51.574;6.502;2024-02-23T12:52:59;1.77;;;0.98;;
76157;SDS011;64907;51.574;6.502;2024-02-23T12:58:00;5.05;;;1.52;;
76157;SDS011;64907;51.574;6.502;2024-02-23T13:02:56;3.20;;;1.25;;
76157;SDS011;64907;51.574;6.502;2024-02-23T13:08:01;5.57;;;1.70;;
76157;SDS011;64907;51.574;6.502;2024-02-23T13:10:33;5.28;;;1.40;;
76157;SDS011;64907;51.574;6.502;2024-02-23T13:18:00;4.55;;;1.10;;
76157;SDS011;64907;51.574;6.502;2024-02-23T13:20:28;2.63;;;1.13;;
76157;SDS011;64907;51.574;6.502;2024-02-23T13:22:55;3.08;;;1.30;;
76157;SDS011;64907;51.574;6.502;2024-02-23T13:25:22;3.85;;;1.60;;
76157;SDS011;64907;51.574;6.502;2024-02-23T13:30:33;4.30;;;1.02;;
76157;SDS011;64907;51.574;6.502;2024-02-23T13:32:58;4.30;;;1.23;;
76157;SDS011;64907;51.574;6.502;2024-02-23T13:40:59;1.77;;;0.98;;
76157;SDS011;64907;51.574;6.502;2024-02-23T13:43:27;2.45;;;1.40;;
76157;SDS011;64907;51.574;6.502;2024-02-23T13:45:56;4.88;;;1.42;;
76157;SDS011;64907;51.574;6.502;2024-02-23T13:48:24;3.05;;;1.33;;
76157;SDS011;64907;51.574;6.502;2024-02-23T13:50:56;4.22;;;1.20;;
76157;SDS011;64907;51.574;6.502;2024-02-23T13:55:52;3.83;;;1.20;;
76157;SDS011;64907;51.574;6.502;2024-02-23T13:58:32;4.40;;;1.17;;
76157;SDS011;64907;51.574;6.502;2024-02-23T14:01:06;4.88;;;1.35;;
76157;SDS011;64907;51.574;6.502;2024-02-23T14:06:02;3.83;;;1.08;;
76157;SDS011;64907;51.574;6.502;2024-02-23T14:11:02;2.53;;;1.13;;
76157;SDS011;64907;51.574;6.502;2024-02-23T14:21:38;2.78;;;1.33;;
76157;SDS011;64907;51.574;6.502;2024-02-23T14:26:46;6.13;;;1.70;;
76157;SDS011;64907;51.574;6.502;2024-02-23T14:29:27;5.32;;;2.00;;
76157;SDS011;64907;51.574;6.502;2024-02-23T14:31:52;3.10;;;1.50;;
76157;SDS011;64907;51.574;6.502;2024-02-23T14:36:51;6.32;;;1.20;;
76157;SDS011;64907;51.574;6.502;2024-02-23T14:39:25;5.20;;;1.30;;
76157;SDS011;64907;51.574;6.502;2024-02-23T14:54:31;6.13;;;1.50;;
76157;SDS011;64907;51.574;6.502;2024-02-23T14:57:00;3.53;;;1.25;;
76157;SDS011;64907;51.574;6.502;2024-02-23T14:59:25;3.78;;;1.85;;
76157;SDS011;64907;51.574;6.502;2024-02-23T15:01:51;2.15;;;1.27;;
76157;SDS011;64907;51.574;6.502;2024-02-23T15:04:16;2.42;;;1.50;;
76157;SDS011;64907;51.574;6.502;2024-02-23T15:06:49;4.97;;;1.20;;
76157;SDS011;64907;51.574;6.502;2024-02-23T15:09:14;3.70;;;1.55;;
76157;SDS011;64907;51.574;6.502;2024-02-23T15:11:47;2.50;;;1.10;;
76157;SDS011;64907;51.574;6.502;2024-02-23T15:14:13;4.82;;;1.35;;
76157;SDS011;64907;51.574;6.502;2024-02-23T15:16:55;2.45;;;1.40;;
76157;SDS011;64907;51.574;6.502;2024-02-23T15:19:29;3.15;;;1.25;;
76157;SDS011;64907;51.574;6.502;2024-02-23T15:21:56;2.90;;;1.40;;
76157;SDS011;64907;51.574;6.502;2024-02-23T15:24:25;2.83;;;1.45;;
76157;SDS011;64907;51.574;6.502;2024-02-23T15:26:52;4.68;;;1.67;;
76157;SDS011;64907;51.574;6.502;2024-02-23T15:29:17;5.22;;;1.55;;
76157;SDS011;64907;51.574;6.502;2024-02-23T15:31:55;3.85;;;1.02;;
76157;SDS011;64907;51.574;6.502;2024-02-23T15:39:33;5.25;;;1.17;;
76157;SDS011;64907;51.574;6.502;2024-02-23T15:42:06;3.67;;;1.15;;
76157;SDS011;64907;51.574;6.502;2024-02-23T15:44:42;7.25;;;1.67;;
76157;SDS011;64907;51.574;6.502;2024-02-23T15:49:45;1.48;;;1.30;;
76157;SDS011;64907;51.574;6.502;2024-02-23T15:52:12;5.13;;;1.50;;
76157;SDS011;64907;51.574;6.502;2024-02-23T15:54:41;3.92;;;1.42;;
76157;SDS011;64907;51.574;6.502;2024-02-23T15:57:06;5.10;;;1.45;;
76157;SDS011;64907;51.574;6.502;2024-02-23T15:59:34;3.55;;;1.23;;
76157;SDS011;64907;51.574;6.502;2024-02-23T16:04:29;3.95;;;1.20;;
76157;SDS011;64907;51.574;6.502;2024-02-23T16:06:55;3.10;;;1.25;;
76157;SDS011;64907;51.574;6.502;2024-02-23T16:09:20;4.50;;;1.17;;
76157;SDS011;64907;51.574;6.502;2024-02-23T16:11:46;2.20;;;1.20;;
76157;SDS011;64907;51.574;6.502;2024-02-23T16:19:18;2.85;;;1.23;;
76157;SDS011;64907;51.574;6.502;2024-02-23T16:26:51;2.22;;;0.88;;
76157;SDS011;64907;51.574;6.502;2024-02-23T16:31:52;0.70;;;0.70;;
76157;SDS011;64907;51.574;6.502;2024-02-23T16:34:26;1.05;;;0.80;;
76157;SDS011;64907;51.574;6.502;2024-02-23T16:39:21;1.40;;;1.27;;
76157;SDS011;64907;51.574;6.502;2024-02-23T16:41:48;2.10;;;0.80;;
76157;SDS011;64907;51.574;6.502;2024-02-23T16:44:14;1.65;;;0.93;;
76157;SDS011;64907;51.574;6.502;2024-02-23T16:49:22;3.15;;;1.00;;
76157;SDS011;64907;51.574;6.502;2024-02-23T16:54:26;1.02;;;0.90;;
76157;SDS011;64907;51.574;6.502;2024-02-23T16:59:44;1.00;;;0.90;;
76157;SDS011;64907;51.574;6.502;2024-02-23T17:02:15;2.30;;;1.15;;
76157;SDS011;64907;51.574;6.502;2024-02-23T17:04:41;1.45;;;0.90;;
76157;SDS011;64907;51.574;6.502;2024-02-23T17:09:40;1.95;;;1.38;;
76157;SDS011;64907;51.574;6.502;2024-02-23T17:14:46;3.08;;;0.80;;
76157;SDS011;64907;51.574;6.502;2024-02-23T17:17:11;1.00;;;0.90;;
76157;SDS011;64907;51.574;6.502;2024-02-23T17:19:43;0.85;;;0.85;;
76157;SDS011;64907;51.574;6.502;2024-02-23T17:22:08;3.00;;;1.00;;
76157;SDS011;64907;51.574;6.502;2024-02-23T17:29:55;1.38;;;1.13;;
76157;SDS011;64907;51.574;6.502;2024-02-23T17:45:19;1.42;;;1.00;;
76157;SDS011;64907;51.574;6.502;2024-02-23T17:47:44;1.42;;;0.70;;
76157;SDS011;64907;51.574;6.502;2024-02-23T17:50:13;1.92;;;0.80;;
76157;SDS011;64907;51.574;6.502;2024-02-23T17:52:40;1.27;;;1.05;;
76157;SDS011;64907;51.574;6.502;2024-02-23T17:55:06;1.15;;;1.00;;
76157;SDS011;64907;51.574;6.502;2024-02-23T17:57:32;2.65;;;1.10;;
76157;SDS011;64907;51.574;6.502;2024-02-23T17:59:57;1.65;;;1.50;;
76157;SDS011;64907;51.574;6.502;2024-02-23T18:02:36;0.95;;;0.90;;
76157;SDS011;64907;51.574;6.502;2024-02-23T18:05:01;2.33;;;2.13;;
76157;SDS011;64907;51.574;6.502;2024-02-23T18:07:37;2.85;;;1.50;;
76157;SDS011;64907;51.574;6.502;2024-02-23T18:10:02;3.83;;;1.40;;
76157;SDS011;64907;51.574;6.502;2024-02-23T18:12:30;2.92;;;2.20;;
76157;SDS011;64907;51.574;6.502;2024-02-23T18:14:56;2.83;;;1.80;;
76157;SDS011;64907;51.574;6.502;2024-02-23T18:17:28;2.25;;;2.05;;
76157;SDS011;64907;51.574;6.502;2024-02-23T18:19:54;2.50;;;1.50;;
76157;SDS011;64907;51.574;6.502;2024-02-23T18:22:28;1.83;;;1.73;;
76157;SDS011;64907;51.574;6.502;2024-02-23T18:24:56;1.70;;;1.60;;
76157;SDS011;64907;51.574;6.502;2024-02-23T18:27:21;1.73;;;1.40;;
76157;SDS011;64907;51.574;6.502;2024-02-23T18:29:52;2.85;;;2.28;;
76157;SDS011;64907;51.574;6.502;2024-02-23T18:32:19;1.58;;;1.48;;
76157;SDS011;64907;51.574;6.502;2024-02-23T18:34:46;1.63;;;1.35;;
76157;SDS011;64907;51.574;6.502;2024-02-23T18:37:18;2.05;;;1.13;;
76157;SDS011;64907;51.574;6.502;2024-02-23T18:39:46;3.90;;;1.60;;
76157;SDS011;64907;51.574;6.502;2024-02-23T18:42:14;1.98;;;1.88;;
76157;SDS011;64907;51.574;6.502;2024-02-23T18:44:39;5.07;;;4.70;;